createdAt,value
2018-04-29T00:00:54.739Z,6.35
2018-04-29T00:03:23.242Z,4.87
2018-04-29T00:05:50.902Z,6.40
2018-04-29T00:08:18.542Z,5.80
2018-04-29T00:10:46.146Z,5.12
2018-04-29T00:13:13.830Z,6.10
2018-04-29T00:15:41.476Z,5.25
2018-04-29T00:18:09.852Z,5.78
2018-04-29T00:20:37.442Z,4.97
2018-04-29T00:23:05.068Z,6.30
2018-04-29T00:25:32.656Z,5.62
2018-04-29T00:28:01.063Z,5.68
2018-04-29T00:30:28.671Z,6.57
2018-04-29T00:32:56.350Z,5.30
2018-04-29T00:35:23.939Z,6.00
2018-04-29T00:37:51.548Z,5.05
2018-04-29T00:40:19.235Z,6.28
2018-04-29T00:42:47.116Z,4.68
2018-04-29T00:45:14.721Z,5.07
2018-04-29T00:47:42.331Z,5.12
2018-04-29T00:50:09.972Z,5.30
2018-04-29T00:52:37.573Z,5.40
2018-04-29T00:55:05.304Z,5.10
2018-04-29T00:57:33.826Z,5.37
2018-04-29T01:00:01.557Z,5.57
2018-04-29T01:02:29.114Z,5.40
2018-04-29T01:04:57.505Z,4.28
2018-04-29T01:07:25.878Z,6.05
2018-04-29T01:09:56.349Z,5.10
2018-04-29T01:12:26.244Z,7.07
2018-04-29T01:14:55.908Z,5.25
2018-04-29T01:17:25.591Z,6.68
2018-04-29T01:20:04.390Z,4.97
2018-04-29T01:22:37.603Z,6.45
2018-04-29T01:25:07.359Z,5.40
2018-04-29T01:27:37.218Z,7.35
2018-04-29T01:30:04.834Z,5.85
2018-04-29T01:32:32.421Z,5.40
2018-04-29T01:35:00.807Z,5.45
2018-04-29T01:37:28.437Z,6.00
2018-04-29T01:39:56.072Z,5.90
2018-04-29T01:42:23.652Z,5.97
2018-04-29T01:44:51.230Z,6.03
2018-04-29T01:47:19.611Z,6.00
2018-04-29T01:49:48.015Z,6.37
2018-04-29T01:52:15.646Z,6.50
2018-04-29T01:54:44.163Z,5.50
2018-04-29T01:57:11.741Z,6.78
2018-04-29T01:59:39.338Z,6.60
2018-04-29T02:02:06.979Z,6.50
2018-04-29T02:04:34.604Z,6.90
2018-04-29T02:07:02.255Z,5.93
2018-04-29T02:09:30.609Z,6.78
2018-04-29T02:11:58.195Z,5.85
2018-04-29T02:14:26.613Z,5.47
2018-04-29T02:16:54.235Z,6.47
2018-04-29T02:19:21.837Z,7.18
2018-04-29T02:21:49.464Z,7.43
2018-04-29T02:24:17.054Z,6.22
2018-04-29T02:26:44.671Z,7.03
2018-04-29T02:29:13.067Z,6.28
2018-04-29T02:31:40.702Z,7.97
2018-04-29T02:34:09.111Z,7.12
2018-04-29T02:36:36.743Z,6.55
2018-04-29T02:39:04.409Z,6.07
2018-04-29T02:41:31.987Z,6.28
2018-04-29T02:43:59.607Z,7.82
2018-04-29T02:46:27.247Z,7.82
2018-04-29T02:48:54.861Z,6.30
2018-04-29T02:51:23.246Z,6.75
2018-04-29T02:53:51.630Z,6.90
2018-04-29T02:56:19.294Z,7.25
2018-04-29T02:58:46.897Z,6.53
2018-04-29T03:01:14.528Z,6.40
2018-04-29T03:03:42.149Z,7.97
2018-04-29T03:06:09.784Z,8.13
2018-04-29T03:08:37.393Z,7.60
2018-04-29T03:11:05.793Z,8.68
2018-04-29T03:13:33.393Z,7.90
2018-04-29T03:16:01.019Z,7.72
2018-04-29T03:18:28.626Z,7.90
2018-04-29T03:20:59.722Z,9.13
2018-04-29T03:23:27.308Z,8.98
2018-04-29T03:25:54.946Z,8.90
2018-04-29T03:28:22.513Z,8.80
2018-04-29T03:30:50.113Z,9.07
2018-04-29T03:33:17.787Z,8.35
2018-04-29T03:35:45.454Z,9.48
2018-04-29T03:38:13.106Z,9.50
2018-04-29T03:40:40.735Z,10.10
2018-04-29T03:43:08.358Z,10.80
2018-04-29T03:45:36.000Z,11.10
2018-04-29T03:48:03.585Z,9.80
2018-04-29T03:50:32.032Z,10.40
2018-04-29T03:52:59.615Z,9.57
2018-04-29T03:55:28.044Z,8.77
2018-04-29T03:58:07.559Z,10.00
2018-04-29T04:00:55.875Z,9.77
2018-04-29T04:03:35.387Z,9.55
2018-04-29T04:06:03.060Z,9.70
2018-04-29T04:08:30.757Z,9.95
2018-04-29T04:10:58.415Z,9.18
2018-04-29T04:13:26.110Z,10.10
2018-04-29T04:15:53.728Z,10.52
2018-04-29T04:18:21.370Z,10.52
2018-04-29T04:20:48.994Z,9.20
2018-04-29T04:23:16.637Z,10.55
2018-04-29T04:25:44.248Z,9.60
2018-04-29T04:28:11.879Z,9.32
2018-04-29T04:30:39.482Z,8.75
2018-04-29T04:33:07.183Z,9.27
2018-04-29T04:35:34.891Z,8.50
2018-04-29T04:38:02.516Z,8.50
2018-04-29T04:40:30.138Z,9.23
2018-04-29T04:42:57.801Z,10.18
2018-04-29T04:45:25.507Z,8.00
2018-04-29T04:47:53.127Z,7.18
2018-04-29T04:50:20.792Z,8.43
2018-04-29T04:52:48.477Z,7.50
2018-04-29T04:55:16.105Z,7.35
2018-04-29T04:57:43.781Z,7.35
2018-04-29T05:00:11.441Z,7.28
2018-04-29T05:02:39.050Z,7.65
2018-04-29T05:05:06.695Z,7.57
2018-04-29T05:07:34.382Z,7.37
2018-04-29T05:10:02.023Z,8.77
2018-04-29T05:12:30.525Z,7.07
2018-04-29T05:14:58.133Z,8.07
2018-04-29T05:17:25.777Z,7.25
2018-04-29T05:19:53.405Z,6.45
2018-04-29T05:22:21.030Z,6.07
2018-04-29T05:24:49.391Z,7.35
2018-04-29T05:27:17.066Z,7.00
2018-04-29T05:29:44.706Z,6.53
2018-04-29T05:32:12.311Z,7.62
2018-04-29T05:34:40.727Z,9.10
2018-04-29T05:37:08.357Z,8.52
2018-04-29T05:39:35.979Z,7.43
2018-04-29T05:42:05.249Z,7.50
2018-04-29T05:44:32.821Z,8.35
2018-04-29T05:47:00.517Z,8.25
2018-04-29T05:49:28.170Z,9.32
2018-04-29T05:51:55.755Z,8.82
2018-04-29T05:54:23.353Z,8.75
2018-04-29T05:56:51.009Z,8.35
2018-04-29T05:59:18.642Z,8.82
2018-04-29T06:01:47.014Z,9.38
2018-04-29T06:04:14.644Z,8.45
2018-04-29T06:06:42.279Z,8.80
2018-04-29T06:09:09.917Z,8.98
2018-04-29T06:11:38.326Z,9.65
2018-04-29T06:14:05.996Z,10.40
2018-04-29T06:16:33.635Z,8.77
2018-04-29T06:19:01.300Z,9.55
2018-04-29T06:21:28.955Z,10.75
2018-04-29T06:23:57.308Z,9.35
2018-04-29T06:26:25.721Z,10.45
2018-04-29T06:28:53.461Z,10.80
2018-04-29T06:31:21.149Z,11.00
2018-04-29T06:33:48.750Z,10.55
2018-04-29T06:36:16.378Z,10.27
2018-04-29T06:38:43.989Z,11.23
2018-04-29T06:41:11.620Z,8.00
2018-04-29T06:43:39.964Z,8.95
2018-04-29T06:46:08.361Z,9.30
2018-04-29T06:48:35.932Z,10.20
2018-04-29T06:51:03.518Z,9.75
2018-04-29T06:53:31.173Z,9.80
2018-04-29T06:55:58.789Z,8.63
2018-04-29T06:58:26.395Z,9.02
2018-04-29T07:00:54.040Z,8.45
2018-04-29T07:03:21.653Z,9.07
2018-04-29T07:05:49.247Z,7.57
2018-04-29T07:08:16.941Z,9.15
2018-04-29T07:10:45.244Z,7.93
2018-04-29T07:13:12.878Z,8.60
2018-04-29T07:15:40.524Z,6.97
2018-04-29T07:18:08.134Z,7.72
2018-04-29T07:20:35.757Z,7.72
2018-04-29T07:23:03.416Z,6.70
2018-04-29T07:25:31.097Z,6.70
2018-04-29T07:27:58.743Z,7.47
2018-04-29T07:30:26.324Z,7.28
2018-04-29T07:32:53.953Z,6.75
2018-04-29T07:35:21.538Z,7.82
2018-04-29T07:37:49.160Z,8.07
2018-04-29T07:40:17.506Z,8.65
2018-04-29T07:42:45.124Z,8.23
2018-04-29T07:45:12.738Z,7.15
2018-04-29T07:47:40.375Z,7.75
2018-04-29T07:50:07.982Z,7.32
2018-04-29T07:52:36.477Z,7.05
2018-04-29T07:55:04.009Z,6.62
2018-04-29T07:57:31.607Z,6.62
2018-04-29T07:59:59.235Z,5.78
2018-04-29T08:02:27.643Z,6.30
2018-04-29T08:04:55.274Z,5.90
2018-04-29T08:07:22.873Z,5.28
2018-04-29T08:09:50.473Z,5.05
2018-04-29T08:12:18.089Z,4.93
2018-04-29T08:14:45.704Z,4.25
2018-04-29T08:17:13.375Z,4.60
2018-04-29T08:19:41.806Z,4.12
2018-04-29T08:22:09.406Z,5.30
2018-04-29T08:24:37.046Z,4.05
2018-04-29T08:27:04.681Z,4.25
2018-04-29T08:29:32.265Z,4.40
2018-04-29T08:31:59.909Z,4.30
2018-04-29T08:34:27.506Z,3.90
2018-04-29T08:36:55.095Z,3.90
2018-04-29T08:39:23.522Z,3.67
2018-04-29T08:41:51.174Z,4.20
2018-04-29T08:44:18.791Z,4.47
2018-04-29T08:46:46.415Z,4.50
2018-04-29T08:49:13.993Z,4.10
2018-04-29T08:51:41.629Z,4.60
2018-04-29T08:54:09.990Z,4.07
2018-04-29T08:56:37.556Z,3.33
2018-04-29T08:59:05.221Z,3.20
2018-04-29T09:01:32.805Z,3.30
2018-04-29T09:04:00.432Z,3.60
2018-04-29T09:06:28.058Z,2.97
2018-04-29T09:08:55.633Z,3.50
2018-04-29T09:11:23.274Z,3.57
2018-04-29T09:13:51.673Z,3.50
2018-04-29T09:16:19.366Z,3.60
2018-04-29T09:18:47.007Z,3.43
2018-04-29T09:21:14.603Z,3.03
2018-04-29T09:23:42.227Z,2.93
2018-04-29T09:26:10.609Z,2.87
2018-04-29T09:28:38.226Z,3.47
2018-04-29T09:31:05.866Z,3.30
2018-04-29T09:33:33.445Z,2.70
2018-04-29T09:36:01.062Z,3.20
2018-04-29T09:38:28.774Z,4.07
2018-04-29T09:40:56.401Z,3.10
2018-04-29T09:43:24.083Z,3.67
2018-04-29T09:45:52.420Z,3.80
2018-04-29T09:48:20.822Z,3.03
2018-04-29T09:50:48.398Z,3.50
2018-04-29T09:53:16.030Z,2.77
2018-04-29T09:55:44.389Z,3.67
2018-04-29T09:58:12.047Z,3.40
2018-04-29T10:00:39.670Z,2.77
2018-04-29T10:03:08.078Z,2.67
2018-04-29T10:05:35.757Z,3.30
2018-04-29T10:08:03.332Z,3.33
2018-04-29T10:10:31.674Z,3.50
2018-04-29T10:13:00.223Z,3.10
2018-04-29T10:15:27.746Z,3.17
2018-04-29T10:17:55.386Z,2.80
2018-04-29T10:20:22.981Z,2.87
2018-04-29T10:22:51.412Z,2.80
2018-04-29T10:25:19.749Z,2.63
2018-04-29T10:27:47.356Z,3.27
2018-04-29T10:30:14.957Z,2.93
2018-04-29T10:32:42.612Z,3.20
2018-04-29T10:35:10.229Z,3.73
2018-04-29T10:37:37.850Z,3.07
2018-04-29T10:40:06.264Z,3.10
2018-04-29T10:42:33.885Z,2.67
2018-04-29T10:45:02.285Z,2.73
2018-04-29T10:47:29.894Z,3.13
2018-04-29T10:49:57.487Z,2.53
2018-04-29T10:52:25.907Z,2.90
2018-04-29T10:54:53.494Z,3.73
2018-04-29T10:57:21.114Z,3.40
2018-04-29T10:59:48.737Z,3.23
2018-04-29T11:02:16.325Z,3.07
2018-04-29T11:04:44.764Z,2.73
2018-04-29T11:07:12.381Z,3.17
2018-04-29T11:09:40.028Z,3.60
2018-04-29T11:12:08.368Z,2.10
2018-04-29T11:14:36.002Z,2.83
2018-04-29T11:17:03.641Z,3.60
2018-04-29T11:19:31.223Z,3.57
2018-04-29T11:21:58.865Z,2.80
2018-04-29T11:24:26.480Z,2.70
2018-04-29T11:26:54.103Z,2.80
2018-04-29T11:29:21.729Z,3.13
2018-04-29T11:31:50.121Z,4.37
2018-04-29T11:34:18.504Z,7.00
2018-04-29T11:36:46.134Z,4.10
2018-04-29T11:39:13.745Z,3.13
2018-04-29T11:41:41.367Z,2.90
2018-04-29T11:44:08.957Z,6.77
2018-04-29T11:46:36.594Z,4.10
2018-04-29T11:49:04.937Z,4.33
2018-04-29T11:51:32.561Z,3.70
2018-04-29T11:54:00.147Z,3.40
2018-04-29T11:56:27.778Z,5.23
2018-04-29T11:58:55.389Z,3.93
2018-04-29T12:01:23.041Z,3.53
2018-04-29T12:03:50.647Z,4.70
2018-04-29T12:06:19.000Z,4.03
2018-04-29T12:08:46.620Z,2.67
2018-04-29T12:11:14.198Z,3.63
2018-04-29T12:13:41.820Z,3.43
2018-04-29T12:16:10.159Z,3.77
2018-04-29T12:18:37.813Z,2.83
2018-04-29T12:21:05.396Z,2.80
2018-04-29T12:23:33.797Z,2.47
2018-04-29T12:26:02.155Z,2.63
2018-04-29T12:28:29.779Z,3.53
2018-04-29T12:30:57.362Z,2.80
2018-04-29T12:33:24.985Z,3.40
2018-04-29T12:35:52.685Z,3.63
2018-04-29T12:38:20.306Z,3.37
2018-04-29T12:40:47.916Z,3.00
2018-04-29T12:43:15.537Z,2.90
2018-04-29T12:45:43.125Z,3.20
2018-04-29T12:48:10.772Z,3.23
2018-04-29T12:50:38.371Z,2.53
2018-04-29T12:53:05.953Z,3.50
2018-04-29T12:55:34.367Z,3.93
2018-04-29T12:58:02.730Z,2.90
2018-04-29T13:00:30.369Z,3.60
2018-04-29T13:02:58.763Z,4.07
2018-04-29T13:05:26.356Z,2.80
2018-04-29T13:07:53.981Z,3.30
2018-04-29T13:10:22.361Z,3.50
2018-04-29T13:12:50.742Z,2.90
2018-04-29T13:15:19.123Z,3.20
2018-04-29T13:17:46.755Z,4.30
2018-04-29T13:20:14.367Z,3.90
2018-04-29T13:22:41.982Z,3.70
2018-04-29T13:25:09.633Z,3.30
2018-04-29T13:27:37.226Z,3.70
2018-04-29T13:30:05.619Z,3.17
2018-04-29T13:32:33.201Z,3.43
2018-04-29T13:35:00.789Z,3.80
2018-04-29T13:37:28.432Z,3.17
2018-04-29T13:39:56.022Z,3.80
2018-04-29T13:42:23.726Z,4.50
2018-04-29T13:44:51.333Z,3.37
2018-04-29T13:47:18.983Z,3.33
2018-04-29T13:49:46.576Z,4.20
2018-04-29T13:52:14.181Z,3.23
2018-04-29T13:54:41.862Z,3.53
2018-04-29T13:57:09.437Z,3.27
2018-04-29T13:59:37.056Z,3.30
2018-04-29T14:02:04.676Z,4.87
2018-04-29T14:04:32.261Z,3.30
2018-04-29T14:06:59.889Z,2.90
2018-04-29T14:09:27.490Z,4.00
2018-04-29T14:11:55.894Z,3.10
2018-04-29T14:14:23.483Z,3.43
2018-04-29T14:16:51.084Z,3.20
2018-04-29T14:19:19.515Z,4.13
2018-04-29T14:21:47.109Z,4.60
2018-04-29T14:24:14.690Z,3.33
2018-04-29T14:26:43.090Z,3.50
2018-04-29T14:29:10.678Z,3.80
2018-04-29T14:31:38.315Z,3.33
2018-04-29T14:34:05.901Z,3.33
2018-04-29T14:36:33.565Z,3.40
2018-04-29T14:39:01.164Z,2.77
2018-04-29T14:41:28.793Z,3.53
2018-04-29T14:43:56.368Z,3.17
2018-04-29T14:46:23.964Z,3.77
2018-04-29T14:48:52.364Z,3.30
2018-04-29T14:51:20.004Z,2.93
2018-04-29T14:53:48.367Z,2.90
2018-04-29T14:56:16.012Z,2.97
2018-04-29T14:58:43.630Z,4.07
2018-04-29T15:01:11.269Z,3.60
2018-04-29T15:03:39.651Z,3.83
2018-04-29T15:06:07.998Z,3.83
2018-04-29T15:08:35.619Z,4.07
2018-04-29T15:11:03.244Z,3.33
2018-04-29T15:13:30.919Z,3.40
2018-04-29T15:15:59.312Z,2.77
2018-04-29T15:18:38.792Z,2.60
2018-04-29T15:21:06.412Z,2.80
2018-04-29T15:23:34.132Z,3.33
2018-04-29T15:26:01.720Z,3.20
2018-04-29T15:28:30.130Z,3.63
2018-04-29T15:30:57.716Z,3.40
2018-04-29T15:33:25.346Z,3.07
2018-04-29T15:35:52.946Z,3.70
2018-04-29T15:38:20.551Z,3.57
2018-04-29T15:40:48.984Z,3.00
2018-04-29T15:43:16.578Z,2.93
2018-04-29T15:45:44.976Z,3.30
2018-04-29T15:48:12.702Z,3.50
2018-04-29T15:50:40.259Z,4.17
2018-04-29T15:53:07.970Z,2.83
2018-04-29T15:55:35.594Z,3.83
2018-04-29T15:58:03.256Z,2.80
2018-04-29T16:00:30.863Z,3.43
2018-04-29T16:02:58.439Z,3.43
2018-04-29T16:05:26.081Z,3.37
2018-04-29T16:07:53.704Z,3.30
2018-04-29T16:10:21.339Z,2.50
2018-04-29T16:12:48.927Z,3.87
2018-04-29T16:15:16.601Z,2.97
2018-04-29T16:17:45.062Z,3.00
2018-04-29T16:20:12.655Z,2.93
2018-04-29T16:22:41.027Z,3.33
2018-04-29T16:25:09.380Z,4.03
2018-04-29T16:27:37.009Z,3.53
2018-04-29T16:30:04.607Z,3.17
2018-04-29T16:32:32.210Z,3.20
2018-04-29T16:35:00.601Z,3.27
2018-04-29T16:37:28.265Z,3.60
2018-04-29T16:39:55.895Z,3.50
2018-04-29T16:42:24.252Z,2.73
2018-04-29T16:44:51.876Z,3.43
2018-04-29T16:47:19.459Z,3.80
2018-04-29T16:49:47.091Z,3.80
2018-04-29T16:52:14.678Z,3.50
2018-04-29T16:54:42.294Z,3.50
2018-04-29T16:57:09.935Z,3.40
2018-04-29T16:59:37.531Z,4.83
2018-04-29T17:02:05.159Z,4.60
2018-04-29T17:04:33.528Z,4.63
2018-04-29T17:07:01.187Z,4.20
2018-04-29T17:09:28.788Z,3.97
2018-04-29T17:11:56.410Z,4.53
2018-04-29T17:14:24.111Z,3.87
2018-04-29T17:16:52.461Z,4.23
2018-04-29T17:19:20.093Z,4.40
2018-04-29T17:21:47.701Z,4.50
2018-04-29T17:24:16.049Z,4.50
2018-04-29T17:26:43.673Z,3.37
2018-04-29T17:29:11.304Z,4.03
2018-04-29T17:31:38.859Z,5.30
2018-04-29T17:34:07.271Z,3.47
2018-04-29T17:36:34.853Z,4.47
2018-04-29T17:39:02.463Z,4.60
2018-04-29T17:41:30.873Z,3.60
2018-04-29T17:43:58.521Z,5.83
2018-04-29T17:46:26.870Z,4.27
2018-04-29T17:48:54.753Z,3.93
2018-04-29T17:51:22.335Z,5.30
2018-04-29T17:53:49.946Z,5.03
2018-04-29T17:56:17.576Z,4.20
2018-04-29T17:58:45.253Z,4.70
2018-04-29T18:01:12.914Z,4.03
2018-04-29T18:03:40.555Z,4.40
2018-04-29T18:06:08.145Z,4.07
2018-04-29T18:08:35.783Z,4.73
2018-04-29T18:11:03.411Z,4.30
2018-04-29T18:13:31.766Z,4.17
2018-04-29T18:15:59.410Z,4.67
2018-04-29T18:18:26.987Z,4.33
2018-04-29T18:20:54.662Z,5.00
2018-04-29T18:23:22.302Z,4.27
2018-04-29T18:25:49.935Z,3.70
2018-04-29T18:28:17.560Z,3.50
2018-04-29T18:30:45.950Z,5.03
2018-04-29T18:33:14.307Z,5.03
2018-04-29T18:35:41.925Z,4.87
2018-04-29T18:38:09.530Z,5.50
2018-04-29T18:40:37.198Z,4.77
2018-04-29T18:43:04.791Z,4.80
2018-04-29T18:45:32.386Z,3.53
2018-04-29T18:48:00.047Z,4.63
2018-04-29T18:50:27.720Z,3.90
2018-04-29T18:52:55.298Z,4.43
2018-04-29T18:55:22.898Z,3.50
2018-04-29T18:57:50.523Z,4.30
2018-04-29T19:00:18.154Z,5.37
2018-04-29T19:02:45.757Z,4.87
2018-04-29T19:05:14.150Z,4.33
2018-04-29T19:07:41.793Z,4.73
2018-04-29T19:10:12.112Z,4.90
2018-04-29T19:12:39.752Z,4.90
2018-04-29T19:15:07.356Z,5.80
2018-04-29T19:17:35.718Z,5.47
2018-04-29T19:20:04.134Z,5.50
2018-04-29T19:22:31.784Z,5.43
2018-04-29T19:24:59.384Z,4.33
2018-04-29T19:27:27.095Z,5.63
2018-04-29T19:29:55.489Z,3.93
2018-04-29T19:32:23.125Z,5.27
2018-04-29T19:34:50.761Z,5.03
2018-04-29T19:37:18.352Z,5.63
2018-04-29T19:39:45.977Z,4.43
2018-04-29T19:42:13.571Z,4.70
2018-04-29T19:44:41.197Z,5.60
2018-04-29T19:47:08.794Z,4.67
2018-04-29T19:49:36.474Z,4.30
2018-04-29T19:52:04.851Z,4.13
2018-04-29T19:54:32.576Z,4.47
2018-04-29T19:57:00.170Z,5.23
2018-04-29T19:59:29.682Z,3.67
2018-04-29T20:02:00.976Z,4.10
2018-04-29T20:04:28.576Z,4.93
2018-04-29T20:06:56.233Z,4.57
2018-04-29T20:09:23.874Z,4.07
2018-04-29T20:11:51.476Z,4.10
2018-04-29T20:14:19.870Z,3.90
2018-04-29T20:16:47.524Z,4.10
2018-04-29T20:19:15.960Z,4.80
2018-04-29T20:21:43.575Z,3.20
2018-04-29T20:24:11.182Z,4.67
2018-04-29T20:26:38.822Z,4.17
2018-04-29T20:29:06.424Z,4.20
2018-04-29T20:31:34.839Z,4.40
2018-04-29T20:34:03.231Z,3.30
2018-04-29T20:36:30.884Z,4.37
2018-04-29T20:38:58.479Z,4.50
2018-04-29T20:41:26.178Z,4.30
2018-04-29T20:43:54.582Z,3.87
2018-04-29T20:46:22.189Z,3.83
2018-04-29T20:48:49.824Z,5.27
2018-04-29T20:51:17.433Z,5.30
2018-04-29T20:53:45.088Z,4.10
2018-04-29T20:56:12.781Z,3.90
2018-04-29T20:58:40.398Z,4.73
2018-04-29T21:01:08.018Z,4.53
2018-04-29T21:03:35.613Z,3.93
2018-04-29T21:06:03.236Z,5.30
2018-04-29T21:08:31.615Z,4.30
2018-04-29T21:10:59.999Z,4.60
2018-04-29T21:13:27.599Z,4.00
2018-04-29T21:15:55.234Z,4.87
2018-04-29T21:18:22.830Z,4.70
2018-04-29T21:20:50.479Z,4.10
2018-04-29T21:23:18.075Z,4.90
2018-04-29T21:25:45.718Z,4.60
2018-04-29T21:28:13.303Z,4.77
2018-04-29T21:30:40.941Z,4.50
2018-04-29T21:33:08.564Z,4.63
2018-04-29T21:35:36.221Z,5.03
2018-04-29T21:38:03.858Z,4.30
2018-04-29T21:40:31.458Z,5.20
2018-04-29T21:42:59.089Z,4.50
2018-04-29T21:45:27.506Z,4.93
2018-04-29T21:47:55.114Z,4.60
2018-04-29T21:50:22.745Z,3.73
2018-04-29T21:52:50.417Z,4.70
2018-04-29T21:55:18.052Z,4.20
2018-04-29T21:57:45.643Z,4.70
2018-04-29T22:00:13.276Z,5.67
2018-04-29T22:02:40.926Z,5.27
2018-04-29T22:05:08.536Z,4.40
2018-04-29T22:07:36.169Z,4.20
2018-04-29T22:10:03.793Z,4.77
2018-04-29T22:12:32.209Z,4.73
2018-04-29T22:14:59.806Z,5.60
2018-04-29T22:17:27.427Z,4.17
2018-04-29T22:19:55.058Z,4.50
2018-04-29T22:22:23.417Z,4.83
2018-04-29T22:24:51.046Z,4.17
2018-04-29T22:27:18.659Z,6.17
2018-04-29T22:29:47.061Z,4.47
2018-04-29T22:32:14.655Z,5.60
2018-04-29T22:34:42.290Z,5.13
2018-04-29T22:37:09.920Z,4.37
2018-04-29T22:39:37.536Z,5.20
2018-04-29T22:42:05.125Z,5.17
2018-04-29T22:44:32.762Z,5.87
2018-04-29T22:47:00.395Z,4.90
2018-04-29T22:49:27.984Z,5.73
2018-04-29T22:51:55.620Z,6.10
2018-04-29T22:54:23.622Z,4.90
2018-04-29T22:56:51.252Z,5.60
2018-04-29T22:59:18.847Z,4.70
2018-04-29T23:01:46.498Z,5.40
2018-04-29T23:04:14.148Z,5.37
2018-04-29T23:06:41.803Z,5.47
2018-04-29T23:09:09.446Z,5.40
2018-04-29T23:11:37.815Z,5.53
2018-04-29T23:14:06.230Z,5.17
2018-04-29T23:16:33.825Z,5.17
2018-04-29T23:19:01.424Z,5.03
2018-04-29T23:21:29.075Z,5.17
2018-04-29T23:23:57.499Z,5.20
2018-04-29T23:26:25.081Z,5.53
2018-04-29T23:28:52.742Z,4.57
2018-04-29T23:31:21.154Z,4.93
2018-04-29T23:33:49.590Z,5.50
2018-04-29T23:36:17.194Z,4.80
2018-04-29T23:38:45.581Z,6.10
2018-04-29T23:41:13.290Z,4.60
2018-04-29T23:43:40.904Z,3.55
2018-04-29T23:46:09.324Z,3.45
2018-04-29T23:48:36.987Z,3.45
2018-04-29T23:51:04.609Z,3.35
2018-04-29T23:53:32.239Z,2.80
2018-04-29T23:55:59.851Z,2.60
2018-04-29T23:58:28.233Z,2.28
